sensor_id;sensor_type;location;lat;lon;timestamp;temperature;humidity
70107;DHT22;57473;37.508;15.080;2022-11-20T00:01:21;18.80;93.30
70107;DHT22;57473;37.508;15.080;2022-11-20T00:03:50;18.90;92.20
70107;DHT22;57473;37.508;15.080;2022-11-20T00:06:19;19.00;91.40
70107;DHT22;57473;37.508;15.080;2022-11-20T00:08:47;19.00;90.80
70107;DHT22;57473;37.508;15.080;2022-11-20T00:11:18;19.00;90.40
70107;DHT22;57473;37.508;15.080;2022-11-20T00:13:47;19.00;90.40
70107;DHT22;57473;37.508;15.080;2022-11-20T00:16:18;19.00;90.20
70107;DHT22;57473;37.508;15.080;2022-11-20T00:18:46;19.00;89.90
70107;DHT22;57473;37.508;15.080;2022-11-20T00:21:15;19.00;90.10
70107;DHT22;57473;37.508;15.080;2022-11-20T00:23:43;19.00;90.10
70107;DHT22;57473;37.508;15.080;2022-11-20T00:26:13;19.00;90.00
70107;DHT22;57473;37.508;15.080;2022-11-20T00:28:41;19.00;90.20
70107;DHT22;57473;37.508;15.080;2022-11-20T00:31:11;19.00;90.00
70107;DHT22;57473;37.508;15.080;2022-11-20T00:33:39;19.00;90.00
70107;DHT22;57473;37.508;15.080;2022-11-20T00:36:09;19.00;90.00
70107;DHT22;57473;37.508;15.080;2022-11-20T00:38:37;19.00;89.90
70107;DHT22;57473;37.508;15.080;2022-11-20T00:41:07;19.00;89.80
70107;DHT22;57473;37.508;15.080;2022-11-20T00:43:36;19.00;89.80
70107;DHT22;57473;37.508;15.080;2022-11-20T00:46:09;19.00;89.90
70107;DHT22;57473;37.508;15.080;2022-11-20T00:48:36;18.90;89.90
70107;DHT22;57473;37.508;15.080;2022-11-20T00:51:04;18.90;89.80
70107;DHT22;57473;37.508;15.080;2022-11-20T00:53:31;18.90;89.80
70107;DHT22;57473;37.508;15.080;2022-11-20T00:56:01;18.80;90.20
70107;DHT22;57473;37.508;15.080;2022-11-20T00:58:34;18.70;91.00
70107;DHT22;57473;37.508;15.080;2022-11-20T01:01:07;18.50;91.70
70107;DHT22;57473;37.508;15.080;2022-11-20T01:03:36;18.30;92.90
70107;DHT22;57473;37.508;15.080;2022-11-20T01:09:13;18.10;94.70
70107;DHT22;57473;37.508;15.080;2022-11-20T01:11:43;17.90;95.20
70107;DHT22;57473;37.508;15.080;2022-11-20T01:14:13;17.90;95.70
70107;DHT22;57473;37.508;15.080;2022-11-20T01:16:43;17.80;96.00
70107;DHT22;57473;37.508;15.080;2022-11-20T01:19:14;17.80;96.10
70107;DHT22;57473;37.508;15.080;2022-11-20T01:21:46;17.70;96.00
70107;DHT22;57473;37.508;15.080;2022-11-20T01:24:16;17.70;95.50
70107;DHT22;57473;37.508;15.080;2022-11-20T01:26:46;17.70;94.90
70107;DHT22;57473;37.508;15.080;2022-11-20T01:29:16;17.70;94.00
70107;DHT22;57473;37.508;15.080;2022-11-20T01:31:44;17.60;91.30
70107;DHT22;57473;37.508;15.080;2022-11-20T01:34:16;17.60;89.50
70107;DHT22;57473;37.508;15.080;2022-11-20T01:36:43;17.60;88.80
70107;DHT22;57473;37.508;15.080;2022-11-20T01:39:19;17.60;88.30
70107;DHT22;57473;37.508;15.080;2022-11-20T01:41:48;17.60;88.20
70107;DHT22;57473;37.508;15.080;2022-11-20T01:44:52;17.50;88.20
70107;DHT22;57473;37.508;15.080;2022-11-20T01:47:37;17.50;88.50
70107;DHT22;57473;37.508;15.080;2022-11-20T01:50:13;17.50;88.00
70107;DHT22;57473;37.508;15.080;2022-11-20T01:52:48;17.50;87.70
70107;DHT22;57473;37.508;15.080;2022-11-20T01:55:22;17.40;87.40
70107;DHT22;57473;37.508;15.080;2022-11-20T01:57:51;17.40;86.60
70107;DHT22;57473;37.508;15.080;2022-11-20T02:00:20;17.40;85.40
70107;DHT22;57473;37.508;15.080;2022-11-20T02:03:09;17.40;84.70
70107;DHT22;57473;37.508;15.080;2022-11-20T02:06:04;17.40;83.50
70107;DHT22;57473;37.508;15.080;2022-11-20T02:08:33;17.40;83.30
70107;DHT22;57473;37.508;15.080;2022-11-20T02:11:00;17.40;83.10
70107;DHT22;57473;37.508;15.080;2022-11-20T02:13:28;17.40;83.30
70107;DHT22;57473;37.508;15.080;2022-11-20T02:16:24;17.50;83.60
70107;DHT22;57473;37.508;15.080;2022-11-20T02:18:53;17.50;83.70
70107;DHT22;57473;37.508;15.080;2022-11-20T02:24:07;17.40;84.20
70107;DHT22;57473;37.508;15.080;2022-11-20T02:27:06;17.40;84.50
70107;DHT22;57473;37.508;15.080;2022-11-20T02:32:17;17.40;85.00
70107;DHT22;57473;37.508;15.080;2022-11-20T02:34:44;17.40;85.20
70107;DHT22;57473;37.508;15.080;2022-11-20T02:37:11;17.40;85.10
70107;DHT22;57473;37.508;15.080;2022-11-20T02:39:40;17.40;85.50
70107;DHT22;57473;37.508;15.080;2022-11-20T02:42:07;17.40;85.90
70107;DHT22;57473;37.508;15.080;2022-11-20T02:44:34;17.40;86.10
70107;DHT22;57473;37.508;15.080;2022-11-20T02:47:02;17.40;86.30
70107;DHT22;57473;37.508;15.080;2022-11-20T02:49:29;17.40;86.70
70107;DHT22;57473;37.508;15.080;2022-11-20T02:51:56;17.40;87.20
70107;DHT22;57473;37.508;15.080;2022-11-20T02:54:24;17.40;87.80
70107;DHT22;57473;37.508;15.080;2022-11-20T02:56:52;17.40;88.20
70107;DHT22;57473;37.508;15.080;2022-11-20T02:59:19;17.40;88.90
70107;DHT22;57473;37.508;15.080;2022-11-20T03:01:46;17.30;89.40
70107;DHT22;57473;37.508;15.080;2022-11-20T03:04:13;17.30;90.00
70107;DHT22;57473;37.508;15.080;2022-11-20T03:06:41;17.30;90.40
70107;DHT22;57473;37.508;15.080;2022-11-20T03:09:08;17.20;91.10
70107;DHT22;57473;37.508;15.080;2022-11-20T03:11:36;17.20;91.30
70107;DHT22;57473;37.508;15.080;2022-11-20T03:14:04;17.20;91.50
70107;DHT22;57473;37.508;15.080;2022-11-20T03:16:32;17.20;91.70
70107;DHT22;57473;37.508;15.080;2022-11-20T03:18:59;17.20;91.70
70107;DHT22;57473;37.508;15.080;2022-11-20T03:21:27;17.20;91.80
70107;DHT22;57473;37.508;15.080;2022-11-20T03:23:54;17.20;91.80
70107;DHT22;57473;37.508;15.080;2022-11-20T03:26:24;17.20;91.90
70107;DHT22;57473;37.508;15.080;2022-11-20T03:28:54;17.20;91.70
70107;DHT22;57473;37.508;15.080;2022-11-20T03:31:24;17.10;91.80
70107;DHT22;57473;37.508;15.080;2022-11-20T03:33:52;17.10;91.90
70107;DHT22;57473;37.508;15.080;2022-11-20T03:36:20;17.10;92.00
70107;DHT22;57473;37.508;15.080;2022-11-20T03:38:48;17.00;90.90
70107;DHT22;57473;37.508;15.080;2022-11-20T03:41:20;16.80;91.00
70107;DHT22;57473;37.508;15.080;2022-11-20T03:43:51;16.70;91.50
70107;DHT22;57473;37.508;15.080;2022-11-20T03:46:19;16.60;91.90
70107;DHT22;57473;37.508;15.080;2022-11-20T03:48:47;16.50;92.50
70107;DHT22;57473;37.508;15.080;2022-11-20T03:51:28;16.40;93.20
70107;DHT22;57473;37.508;15.080;2022-11-20T03:53:58;16.40;93.80
70107;DHT22;57473;37.508;15.080;2022-11-20T03:56:27;16.30;94.50
70107;DHT22;57473;37.508;15.080;2022-11-20T03:58:55;16.30;94.70
70107;DHT22;57473;37.508;15.080;2022-11-20T04:01:25;16.30;95.60
70107;DHT22;57473;37.508;15.080;2022-11-20T04:03:54;16.30;96.20
70107;DHT22;57473;37.508;15.080;2022-11-20T04:06:30;16.40;95.80
70107;DHT22;57473;37.508;15.080;2022-11-20T04:09:00;16.40;95.30
70107;DHT22;57473;37.508;15.080;2022-11-20T04:11:29;16.40;95.20
70107;DHT22;57473;37.508;15.080;2022-11-20T04:14:02;16.40;95.30
70107;DHT22;57473;37.508;15.080;2022-11-20T04:16:34;16.40;94.70
70107;DHT22;57473;37.508;15.080;2022-11-20T04:19:05;16.40;94.20
70107;DHT22;57473;37.508;15.080;2022-11-20T04:21:32;16.50;93.60
70107;DHT22;57473;37.508;15.080;2022-11-20T04:24:00;16.50;93.40
70107;DHT22;57473;37.508;15.080;2022-11-20T04:26:28;16.50;93.30
70107;DHT22;57473;37.508;15.080;2022-11-20T04:28:56;16.60;92.80
70107;DHT22;57473;37.508;15.080;2022-11-20T04:31:26;16.60;92.60
70107;DHT22;57473;37.508;15.080;2022-11-20T04:33:54;16.60;92.50
70107;DHT22;57473;37.508;15.080;2022-11-20T04:36:24;16.60;92.10
70107;DHT22;57473;37.508;15.080;2022-11-20T04:38:56;16.60;91.20
70107;DHT22;57473;37.508;15.080;2022-11-20T04:41:29;16.60;91.10
70107;DHT22;57473;37.508;15.080;2022-11-20T04:43:58;16.60;90.50
70107;DHT22;57473;37.508;15.080;2022-11-20T04:46:31;16.60;90.30
70107;DHT22;57473;37.508;15.080;2022-11-20T04:48:59;16.60;89.90
70107;DHT22;57473;37.508;15.080;2022-11-20T04:51:27;16.70;89.80
70107;DHT22;57473;37.508;15.080;2022-11-20T04:53:54;16.70;89.30
70107;DHT22;57473;37.508;15.080;2022-11-20T04:56:22;16.70;89.00
70107;DHT22;57473;37.508;15.080;2022-11-20T04:58:49;16.60;87.00
70107;DHT22;57473;37.508;15.080;2022-11-20T05:01:22;16.70;86.10
70107;DHT22;57473;37.508;15.080;2022-11-20T05:03:50;16.80;84.60
70107;DHT22;57473;37.508;15.080;2022-11-20T05:06:19;16.80;84.20
70107;DHT22;57473;37.508;15.080;2022-11-20T05:08:46;16.80;83.80
70107;DHT22;57473;37.508;15.080;2022-11-20T05:11:16;16.90;83.90
70107;DHT22;57473;37.508;15.080;2022-11-20T05:13:44;16.90;82.50
70107;DHT22;57473;37.508;15.080;2022-11-20T05:16:13;17.00;80.70
70107;DHT22;57473;37.508;15.080;2022-11-20T05:18:42;17.10;80.30
70107;DHT22;57473;37.508;15.080;2022-11-20T05:21:10;17.20;79.80
70107;DHT22;57473;37.508;15.080;2022-11-20T05:23:38;17.20;80.00
70107;DHT22;57473;37.508;15.080;2022-11-20T05:26:07;17.20;80.50
70107;DHT22;57473;37.508;15.080;2022-11-20T05:28:34;17.20;80.80
70107;DHT22;57473;37.508;15.080;2022-11-20T05:31:16;17.20;82.20
70107;DHT22;57473;37.508;15.080;2022-11-20T05:33:51;17.10;83.00
70107;DHT22;57473;37.508;15.080;2022-11-20T05:36:18;17.00;83.70
70107;DHT22;57473;37.508;15.080;2022-11-20T05:38:46;16.90;84.10
70107;DHT22;57473;37.508;15.080;2022-11-20T05:41:19;16.90;84.30
70107;DHT22;57473;37.508;15.080;2022-11-20T05:43:48;16.80;83.90
70107;DHT22;57473;37.508;15.080;2022-11-20T05:46:18;16.80;82.90
70107;DHT22;57473;37.508;15.080;2022-11-20T05:48:53;16.80;81.40
70107;DHT22;57473;37.508;15.080;2022-11-20T05:51:21;16.80;80.30
70107;DHT22;57473;37.508;15.080;2022-11-20T05:53:48;16.90;79.60
70107;DHT22;57473;37.508;15.080;2022-11-20T05:56:18;16.90;78.90
70107;DHT22;57473;37.508;15.080;2022-11-20T05:58:46;16.90;78.80
70107;DHT22;57473;37.508;15.080;2022-11-20T06:03:44;17.00;78.00
70107;DHT22;57473;37.508;15.080;2022-11-20T06:06:15;17.00;77.30
70107;DHT22;57473;37.508;15.080;2022-11-20T06:08:43;17.10;77.00
70107;DHT22;57473;37.508;15.080;2022-11-20T06:11:12;17.10;76.90
70107;DHT22;57473;37.508;15.080;2022-11-20T06:13:40;17.20;76.80
70107;DHT22;57473;37.508;15.080;2022-11-20T06:16:09;17.20;76.70
70107;DHT22;57473;37.508;15.080;2022-11-20T06:18:37;17.30;76.70
70107;DHT22;57473;37.508;15.080;2022-11-20T06:21:40;17.20;76.70
70107;DHT22;57473;37.508;15.080;2022-11-20T06:24:00;17.30;76.60
70107;DHT22;57473;37.508;15.080;2022-11-20T06:26:27;17.30;76.50
70107;DHT22;57473;37.508;15.080;2022-11-20T06:28:55;17.40;76.50
70107;DHT22;57473;37.508;15.080;2022-11-20T06:31:25;17.40;76.30
70107;DHT22;57473;37.508;15.080;2022-11-20T06:33:53;17.50;75.90
70107;DHT22;57473;37.508;15.080;2022-11-20T06:36:22;17.50;76.20
70107;DHT22;57473;37.508;15.080;2022-11-20T06:38:49;17.60;76.40
70107;DHT22;57473;37.508;15.080;2022-11-20T06:41:19;17.70;76.60
70107;DHT22;57473;37.508;15.080;2022-11-20T06:43:47;17.70;76.10
70107;DHT22;57473;37.508;15.080;2022-11-20T06:46:15;17.80;75.60
70107;DHT22;57473;37.508;15.080;2022-11-20T06:48:47;17.80;74.30
70107;DHT22;57473;37.508;15.080;2022-11-20T06:51:15;17.90;74.60
70107;DHT22;57473;37.508;15.080;2022-11-20T06:53:42;17.90;74.90
70107;DHT22;57473;37.508;15.080;2022-11-20T06:56:10;17.90;75.00
70107;DHT22;57473;37.508;15.080;2022-11-20T06:58:37;18.00;75.40
70107;DHT22;57473;37.508;15.080;2022-11-20T07:01:07;17.90;75.70
70107;DHT22;57473;37.508;15.080;2022-11-20T07:03:36;17.90;75.30
70107;DHT22;57473;37.508;15.080;2022-11-20T07:06:03;17.90;75.10
70107;DHT22;57473;37.508;15.080;2022-11-20T07:08:32;17.90;75.20
70107;DHT22;57473;37.508;15.080;2022-11-20T07:11:02;17.90;75.90
70107;DHT22;57473;37.508;15.080;2022-11-20T07:13:30;17.80;76.50
70107;DHT22;57473;37.508;15.080;2022-11-20T07:16:02;17.80;76.60
70107;DHT22;57473;37.508;15.080;2022-11-20T07:18:29;17.70;77.00
70107;DHT22;57473;37.508;15.080;2022-11-20T07:21:03;17.70;77.40
70107;DHT22;57473;37.508;15.080;2022-11-20T07:23:31;17.60;77.10
70107;DHT22;57473;37.508;15.080;2022-11-20T07:26:08;17.60;77.50
70107;DHT22;57473;37.508;15.080;2022-11-20T07:28:36;17.60;77.70
70107;DHT22;57473;37.508;15.080;2022-11-20T07:31:03;17.60;77.90
70107;DHT22;57473;37.508;15.080;2022-11-20T07:33:31;17.60;77.80
70107;DHT22;57473;37.508;15.080;2022-11-20T07:36:00;17.50;78.30
70107;DHT22;57473;37.508;15.080;2022-11-20T07:38:27;17.50;78.20
70107;DHT22;57473;37.508;15.080;2022-11-20T07:40:57;17.50;78.20
70107;DHT22;57473;37.508;15.080;2022-11-20T07:43:25;17.50;78.50
70107;DHT22;57473;37.508;15.080;2022-11-20T07:45:54;17.50;78.40
70107;DHT22;57473;37.508;15.080;2022-11-20T07:48:21;17.50;78.50
70107;DHT22;57473;37.508;15.080;2022-11-20T07:50:48;17.50;78.80
70107;DHT22;57473;37.508;15.080;2022-11-20T07:53:16;17.50;78.50
70107;DHT22;57473;37.508;15.080;2022-11-20T07:55:47;17.50;78.80
70107;DHT22;57473;37.508;15.080;2022-11-20T07:58:15;17.50;80.90
70107;DHT22;57473;37.508;15.080;2022-11-20T08:00:42;16.80;85.30
70107;DHT22;57473;37.508;15.080;2022-11-20T08:03:09;15.70;97.00
70107;DHT22;57473;37.508;15.080;2022-11-20T08:05:37;14.20;99.90
70107;DHT22;57473;37.508;15.080;2022-11-20T08:08:04;13.60;99.90
70107;DHT22;57473;37.508;15.080;2022-11-20T08:10:31;13.60;99.90
70107;DHT22;57473;37.508;15.080;2022-11-20T08:12:58;13.60;99.90
70107;DHT22;57473;37.508;15.080;2022-11-20T08:15:49;13.60;99.90
70107;DHT22;57473;37.508;15.080;2022-11-20T08:18:19;13.70;99.90
70107;DHT22;57473;37.508;15.080;2022-11-20T08:21:02;13.80;99.90
70107;DHT22;57473;37.508;15.080;2022-11-20T08:23:29;13.90;99.90
70107;DHT22;57473;37.508;15.080;2022-11-20T08:25:57;13.90;99.90
70107;DHT22;57473;37.508;15.080;2022-11-20T08:28:24;13.80;99.90
70107;DHT22;57473;37.508;15.080;2022-11-20T08:30:58;13.80;99.90
70107;DHT22;57473;37.508;15.080;2022-11-20T08:33:26;13.80;99.90
70107;DHT22;57473;37.508;15.080;2022-11-20T08:35:53;13.80;99.90
70107;DHT22;57473;37.508;15.080;2022-11-20T08:38:20;13.80;99.90
70107;DHT22;57473;37.508;15.080;2022-11-20T08:40:47;13.80;99.90
70107;DHT22;57473;37.508;15.080;2022-11-20T08:43:34;13.80;99.90
70107;DHT22;57473;37.508;15.080;2022-11-20T08:46:01;13.70;99.90
70107;DHT22;57473;37.508;15.080;2022-11-20T08:48:28;13.70;99.90
70107;DHT22;57473;37.508;15.080;2022-11-20T08:50:58;13.70;99.90
70107;DHT22;57473;37.508;15.080;2022-11-20T08:53:27;13.70;99.90
70107;DHT22;57473;37.508;15.080;2022-11-20T08:55:54;13.70;99.90
70107;DHT22;57473;37.508;15.080;2022-11-20T08:58:21;13.70;99.90
70107;DHT22;57473;37.508;15.080;2022-11-20T09:00:48;13.70;99.90
70107;DHT22;57473;37.508;15.080;2022-11-20T09:03:16;13.70;99.90
70107;DHT22;57473;37.508;15.080;2022-11-20T09:05:43;13.70;99.90
70107;DHT22;57473;37.508;15.080;2022-11-20T09:08:10;13.60;99.90
70107;DHT22;57473;37.508;15.080;2022-11-20T09:10:37;13.50;99.90
70107;DHT22;57473;37.508;15.080;2022-11-20T09:13:07;13.50;99.90
70107;DHT22;57473;37.508;15.080;2022-11-20T09:15:34;13.50;99.90
70107;DHT22;57473;37.508;15.080;2022-11-20T09:18:02;13.60;99.90
70107;DHT22;57473;37.508;15.080;2022-11-20T09:20:31;13.60;99.90
70107;DHT22;57473;37.508;15.080;2022-11-20T09:22:58;13.70;99.90
70107;DHT22;57473;37.508;15.080;2022-11-20T09:25:25;13.80;99.90
70107;DHT22;57473;37.508;15.080;2022-11-20T09:27:59;13.90;99.90
70107;DHT22;57473;37.508;15.080;2022-11-20T09:30:27;14.00;99.90
70107;DHT22;57473;37.508;15.080;2022-11-20T09:32:54;14.10;99.90
70107;DHT22;57473;37.508;15.080;2022-11-20T09:35:21;14.10;99.90
70107;DHT22;57473;37.508;15.080;2022-11-20T09:37:49;14.20;99.90
70107;DHT22;57473;37.508;15.080;2022-11-20T09:40:25;14.20;99.90
70107;DHT22;57473;37.508;15.080;2022-11-20T09:56:23;14.70;99.90
70107;DHT22;57473;37.508;15.080;2022-11-20T09:58:57;14.90;99.90
70107;DHT22;57473;37.508;15.080;2022-11-20T10:01:29;15.00;99.90
70107;DHT22;57473;37.508;15.080;2022-11-20T10:04:10;15.10;99.90
70107;DHT22;57473;37.508;15.080;2022-11-20T10:06:56;15.10;99.20
70107;DHT22;57473;37.508;15.080;2022-11-20T10:09:53;15.00;97.30
70107;DHT22;57473;37.508;15.080;2022-11-20T10:17:33;15.00;99.90
70107;DHT22;57473;37.508;15.080;2022-11-20T10:23:18;15.10;96.40
70107;DHT22;57473;37.508;15.080;2022-11-20T10:29:05;15.30;98.50
70107;DHT22;57473;37.508;15.080;2022-11-20T10:31:42;15.30;97.70
70107;DHT22;57473;37.508;15.080;2022-11-20T10:34:23;15.40;95.70
70107;DHT22;57473;37.508;15.080;2022-11-20T10:36:56;15.70;97.00
70107;DHT22;57473;37.508;15.080;2022-11-20T10:39:53;15.90;95.10
70107;DHT22;57473;37.508;15.080;2022-11-20T10:50:47;16.80;84.70
70107;DHT22;57473;37.508;15.080;2022-11-20T10:56:40;17.10;80.20
70107;DHT22;57473;37.508;15.080;2022-11-20T11:02:24;16.80;79.90
70107;DHT22;57473;37.508;15.080;2022-11-20T11:04:58;16.60;80.30
70107;DHT22;57473;37.508;15.080;2022-11-20T11:07:39;16.50;80.40
70107;DHT22;57473;37.508;15.080;2022-11-20T11:10:39;16.80;79.70
70107;DHT22;57473;37.508;15.080;2022-11-20T11:13:28;17.20;74.70
70107;DHT22;57473;37.508;15.080;2022-11-20T11:15:57;17.40;73.20
70107;DHT22;57473;37.508;15.080;2022-11-20T11:18:31;17.60;72.70
70107;DHT22;57473;37.508;15.080;2022-11-20T11:21:04;17.90;69.30
70107;DHT22;57473;37.508;15.080;2022-11-20T11:23:40;18.40;68.60
70107;DHT22;57473;37.508;15.080;2022-11-20T11:26:19;18.80;66.20
70107;DHT22;57473;37.508;15.080;2022-11-20T11:29:00;19.20;64.80
70107;DHT22;57473;37.508;15.080;2022-11-20T11:31:33;19.40;64.70
70107;DHT22;57473;37.508;15.080;2022-11-20T11:36:33;19.80;63.10
70107;DHT22;57473;37.508;15.080;2022-11-20T11:39:03;19.50;64.20
70107;DHT22;57473;37.508;15.080;2022-11-20T11:41:33;18.90;65.20
70107;DHT22;57473;37.508;15.080;2022-11-20T11:44:18;18.50;66.50
70107;DHT22;57473;37.508;15.080;2022-11-20T11:47:10;17.90;66.60
70107;DHT22;57473;37.508;15.080;2022-11-20T11:49:38;17.60;67.10
70107;DHT22;57473;37.508;15.080;2022-11-20T11:54:45;17.50;69.70
70107;DHT22;57473;37.508;15.080;2022-11-20T11:57:54;17.50;68.30
70107;DHT22;57473;37.508;15.080;2022-11-20T12:00:24;17.40;70.40
70107;DHT22;57473;37.508;15.080;2022-11-20T12:03:22;17.30;70.90
70107;DHT22;57473;37.508;15.080;2022-11-20T12:05:58;17.20;72.00
70107;DHT22;57473;37.508;15.080;2022-11-20T12:16:53;16.80;74.80
70107;DHT22;57473;37.508;15.080;2022-11-20T12:19:22;17.10;73.80
70107;DHT22;57473;37.508;15.080;2022-11-20T12:22:13;17.10;72.80
70107;DHT22;57473;37.508;15.080;2022-11-20T12:25:07;17.10;73.10
70107;DHT22;57473;37.508;15.080;2022-11-20T12:30:32;17.10;75.10
70107;DHT22;57473;37.508;15.080;2022-11-20T12:33:25;16.70;76.10
70107;DHT22;57473;37.508;15.080;2022-11-20T12:36:12;16.50;77.20
70107;DHT22;57473;37.508;15.080;2022-11-20T12:41:43;16.30;77.40
70107;DHT22;57473;37.508;15.080;2022-11-20T12:50:38;16.00;77.70
70107;DHT22;57473;37.508;15.080;2022-11-20T13:05:24;15.70;76.50
70107;DHT22;57473;37.508;15.080;2022-11-20T13:07:54;15.70;76.20
70107;DHT22;57473;37.508;15.080;2022-11-20T13:10:43;15.70;75.80
70107;DHT22;57473;37.508;15.080;2022-11-20T13:15:56;15.70;75.50
70107;DHT22;57473;37.508;15.080;2022-11-20T13:18:25;15.70;74.20
70107;DHT22;57473;37.508;15.080;2022-11-20T13:20:52;15.70;73.70
70107;DHT22;57473;37.508;15.080;2022-11-20T13:23:24;15.70;73.20
70107;DHT22;57473;37.508;15.080;2022-11-20T13:26:13;15.70;72.00
70107;DHT22;57473;37.508;15.080;2022-11-20T13:28:46;15.80;71.80
70107;DHT22;57473;37.508;15.080;2022-11-20T13:31:34;15.70;70.80
70107;DHT22;57473;37.508;15.080;2022-11-20T13:34:04;15.70;71.80
70107;DHT22;57473;37.508;15.080;2022-11-20T13:36:33;15.70;72.50
70107;DHT22;57473;37.508;15.080;2022-11-20T13:39:03;15.60;74.00
70107;DHT22;57473;37.508;15.080;2022-11-20T13:41:33;15.60;74.40
70107;DHT22;57473;37.508;15.080;2022-11-20T13:46:54;15.60;75.20
70107;DHT22;57473;37.508;15.080;2022-11-20T13:52:03;15.50;76.00
70107;DHT22;57473;37.508;15.080;2022-11-20T14:00:25;15.60;75.70
70107;DHT22;57473;37.508;15.080;2022-11-20T14:02:58;15.70;75.10
70107;DHT22;57473;37.508;15.080;2022-11-20T14:05:27;15.70;75.40
70107;DHT22;57473;37.508;15.080;2022-11-20T14:07:56;15.70;75.40
70107;DHT22;57473;37.508;15.080;2022-11-20T14:10:28;15.70;75.80
70107;DHT22;57473;37.508;15.080;2022-11-20T14:12:58;15.80;75.20
70107;DHT22;57473;37.508;15.080;2022-11-20T14:15:36;15.80;75.20
70107;DHT22;57473;37.508;15.080;2022-11-20T14:18:15;15.80;76.70
70107;DHT22;57473;37.508;15.080;2022-11-20T14:20:43;15.80;76.20
70107;DHT22;57473;37.508;15.080;2022-11-20T14:23:11;15.90;76.20
70107;DHT22;57473;37.508;15.080;2022-11-20T14:25:42;15.90;76.10
70107;DHT22;57473;37.508;15.080;2022-11-20T14:28:11;15.90;76.10
70107;DHT22;57473;37.508;15.080;2022-11-20T14:30:47;15.90;76.70
70107;DHT22;57473;37.508;15.080;2022-11-20T14:33:15;15.90;76.90
70107;DHT22;57473;37.508;15.080;2022-11-20T14:35:47;15.90;76.70
70107;DHT22;57473;37.508;15.080;2022-11-20T14:38:17;16.00;75.90
70107;DHT22;57473;37.508;15.080;2022-11-20T14:40:45;16.00;76.90
70107;DHT22;57473;37.508;15.080;2022-11-20T14:43:30;16.00;76.90
70107;DHT22;57473;37.508;15.080;2022-11-20T14:46:07;16.00;76.50
70107;DHT22;57473;37.508;15.080;2022-11-20T14:48:46;16.00;77.00
70107;DHT22;57473;37.508;15.080;2022-11-20T14:51:35;16.00;77.90
70107;DHT22;57473;37.508;15.080;2022-11-20T14:54:18;16.00;78.00
70107;DHT22;57473;37.508;15.080;2022-11-20T14:56:56;16.00;78.10
70107;DHT22;57473;37.508;15.080;2022-11-20T14:59:29;16.00;77.50
70107;DHT22;57473;37.508;15.080;2022-11-20T15:02:01;15.90;78.00
70107;DHT22;57473;37.508;15.080;2022-11-20T15:04:28;15.90;78.20
70107;DHT22;57473;37.508;15.080;2022-11-20T15:06:58;15.80;78.30
70107;DHT22;57473;37.508;15.080;2022-11-20T15:09:26;15.80;78.00
70107;DHT22;57473;37.508;15.080;2022-11-20T15:11:59;15.80;76.80
70107;DHT22;57473;37.508;15.080;2022-11-20T15:14:28;15.70;76.80
70107;DHT22;57473;37.508;15.080;2022-11-20T15:16:56;15.70;76.10
70107;DHT22;57473;37.508;15.080;2022-11-20T15:19:25;15.60;77.30
70107;DHT22;57473;37.508;15.080;2022-11-20T15:21:53;15.60;77.60
70107;DHT22;57473;37.508;15.080;2022-11-20T15:24:20;15.60;77.20
70107;DHT22;57473;37.508;15.080;2022-11-20T15:26:48;15.50;77.50
70107;DHT22;57473;37.508;15.080;2022-11-20T15:29:16;15.40;77.10
70107;DHT22;57473;37.508;15.080;2022-11-20T15:31:45;15.40;78.10
70107;DHT22;57473;37.508;15.080;2022-11-20T15:34:16;15.30;78.50
70107;DHT22;57473;37.508;15.080;2022-11-20T15:36:43;15.20;78.60
70107;DHT22;57473;37.508;15.080;2022-11-20T15:39:11;15.20;79.40
70107;DHT22;57473;37.508;15.080;2022-11-20T15:41:38;15.10;79.70
70107;DHT22;57473;37.508;15.080;2022-11-20T15:44:06;15.10;80.20
70107;DHT22;57473;37.508;15.080;2022-11-20T15:46:36;15.10;80.80
70107;DHT22;57473;37.508;15.080;2022-11-20T15:49:06;15.00;81.10
70107;DHT22;57473;37.508;15.080;2022-11-20T15:51:41;15.00;81.30
70107;DHT22;57473;37.508;15.080;2022-11-20T15:54:17;14.90;81.70
70107;DHT22;57473;37.508;15.080;2022-11-20T15:56:48;14.90;82.00
70107;DHT22;57473;37.508;15.080;2022-11-20T15:59:16;14.90;82.40
70107;DHT22;57473;37.508;15.080;2022-11-20T16:01:43;14.90;82.50
70107;DHT22;57473;37.508;15.080;2022-11-20T16:04:13;14.90;82.30
70107;DHT22;57473;37.508;15.080;2022-11-20T16:06:41;14.90;82.80
70107;DHT22;57473;37.508;15.080;2022-11-20T16:09:09;14.90;83.00
70107;DHT22;57473;37.508;15.080;2022-11-20T16:11:36;14.90;83.10
70107;DHT22;57473;37.508;15.080;2022-11-20T16:14:05;14.90;83.00
70107;DHT22;57473;37.508;15.080;2022-11-20T16:16:51;14.90;82.90
70107;DHT22;57473;37.508;15.080;2022-11-20T16:19:18;14.90;83.60
70107;DHT22;57473;37.508;15.080;2022-11-20T16:21:47;14.80;83.50
70107;DHT22;57473;37.508;15.080;2022-11-20T16:24:15;14.80;84.00
70107;DHT22;57473;37.508;15.080;2022-11-20T16:26:43;14.80;83.80
70107;DHT22;57473;37.508;15.080;2022-11-20T16:29:10;14.80;83.90
70107;DHT22;57473;37.508;15.080;2022-11-20T16:31:37;14.80;83.90
70107;DHT22;57473;37.508;15.080;2022-11-20T16:34:07;14.80;84.10
70107;DHT22;57473;37.508;15.080;2022-11-20T16:36:49;14.80;84.20
70107;DHT22;57473;37.508;15.080;2022-11-20T16:39:17;14.80;84.20
70107;DHT22;57473;37.508;15.080;2022-11-20T16:41:49;14.80;84.60
70107;DHT22;57473;37.508;15.080;2022-11-20T16:44:17;14.70;84.90
70107;DHT22;57473;37.508;15.080;2022-11-20T16:46:44;14.70;84.90
70107;DHT22;57473;37.508;15.080;2022-11-20T16:49:12;14.70;85.00
70107;DHT22;57473;37.508;15.080;2022-11-20T16:51:40;14.70;84.90
70107;DHT22;57473;37.508;15.080;2022-11-20T16:54:09;14.70;84.50
70107;DHT22;57473;37.508;15.080;2022-11-20T16:56:40;14.70;84.70
70107;DHT22;57473;37.508;15.080;2022-11-20T16:59:08;14.70;84.60
70107;DHT22;57473;37.508;15.080;2022-11-20T17:01:35;14.70;84.50
70107;DHT22;57473;37.508;15.080;2022-11-20T17:04:06;14.70;84.80
70107;DHT22;57473;37.508;15.080;2022-11-20T17:06:36;14.60;84.80
70107;DHT22;57473;37.508;15.080;2022-11-20T17:09:04;14.60;85.20
70107;DHT22;57473;37.508;15.080;2022-11-20T17:11:31;14.60;85.30
70107;DHT22;57473;37.508;15.080;2022-11-20T17:13:59;14.50;85.60
70107;DHT22;57473;37.508;15.080;2022-11-20T17:16:29;14.50;85.60
70107;DHT22;57473;37.508;15.080;2022-11-20T17:18:57;14.40;85.90
70107;DHT22;57473;37.508;15.080;2022-11-20T17:21:32;14.40;85.90
70107;DHT22;57473;37.508;15.080;2022-11-20T17:24:08;14.30;85.60